createdAt,value
2018-12-09T00:02:01.187Z,0.67
2018-12-09T00:04:29.350Z,0.50
2018-12-09T00:06:57.561Z,0.80
2018-12-09T00:09:25.849Z,1.50
2018-12-09T00:11:53.988Z,0.57
2018-12-09T00:14:22.128Z,0.50
2018-12-09T00:16:50.272Z,1.27
2018-12-09T00:19:18.471Z,0.50
2018-12-09T00:21:46.677Z,0.50
2018-12-09T00:24:14.829Z,1.17
2018-12-09T00:26:42.957Z,1.50
2018-12-09T00:29:11.086Z,0.50
2018-12-09T00:31:39.715Z,0.87
2018-12-09T00:34:07.913Z,0.50
2018-12-09T00:36:36.103Z,0.50
2018-12-09T00:39:06.123Z,0.40
2018-12-09T00:41:34.367Z,0.50
2018-12-09T00:44:02.675Z,0.53
2018-12-09T00:46:30.907Z,0.53
2018-12-09T00:48:59.118Z,0.60
2018-12-09T00:51:27.318Z,0.50
2018-12-09T00:53:55.424Z,0.50
2018-12-09T00:56:23.716Z,0.40
2018-12-09T00:58:51.852Z,0.50
2018-12-09T01:01:20.056Z,0.50
2018-12-09T01:03:48.253Z,0.60
2018-12-09T01:06:16.476Z,0.40
2018-12-09T01:08:44.603Z,0.70
2018-12-09T01:11:12.880Z,0.53
2018-12-09T01:13:41.167Z,0.40
2018-12-09T01:16:09.395Z,0.43
2018-12-09T01:18:37.519Z,0.67
2018-12-09T01:21:05.651Z,0.50
2018-12-09T01:23:33.776Z,0.70
2018-12-09T01:26:02.055Z,0.77
2018-12-09T01:28:30.304Z,0.83
2018-12-09T01:30:58.516Z,0.97
2018-12-09T01:33:26.684Z,0.60
2018-12-09T01:35:54.805Z,2.93
2018-12-09T01:38:23.004Z,0.87
2018-12-09T01:40:55.312Z,2.83
2018-12-09T01:43:23.572Z,2.00
2018-12-09T01:45:51.895Z,2.10
2018-12-09T01:48:20.105Z,1.70
2018-12-09T01:50:48.298Z,2.03
2018-12-09T01:53:28.151Z,2.37
2018-12-09T01:55:56.428Z,0.83
2018-12-09T01:58:24.638Z,1.57
2018-12-09T02:00:52.780Z,1.00
2018-12-09T02:03:20.912Z,1.20
2018-12-09T02:05:49.108Z,2.20
2018-12-09T02:08:17.391Z,1.90
2018-12-09T02:10:45.604Z,1.80
2018-12-09T02:13:14.184Z,1.63
2018-12-09T02:15:42.360Z,2.33
2018-12-09T02:18:10.512Z,3.03
2018-12-09T02:20:38.870Z,1.77
2018-12-09T02:23:07.087Z,2.10
2018-12-09T02:25:35.312Z,1.33
2018-12-09T02:28:03.519Z,2.67
2018-12-09T02:30:31.627Z,1.33
2018-12-09T02:32:59.766Z,2.57
2018-12-09T02:35:28.515Z,1.40
2018-12-09T02:37:56.633Z,0.73
2018-12-09T02:40:24.814Z,1.23
2018-12-09T02:42:53.148Z,1.07
2018-12-09T02:45:21.267Z,1.50
2018-12-09T02:47:49.484Z,1.50
2018-12-09T02:50:17.701Z,1.33
2018-12-09T02:52:45.989Z,0.60
2018-12-09T02:55:14.108Z,1.17
2018-12-09T02:57:42.649Z,2.10
2018-12-09T03:00:11.005Z,1.23
2018-12-09T03:02:39.163Z,0.60
2018-12-09T03:05:07.748Z,0.50
2018-12-09T03:07:35.875Z,0.53
2018-12-09T03:10:04.148Z,0.70
2018-12-09T03:12:32.364Z,0.73
2018-12-09T03:15:00.577Z,0.77
2018-12-09T03:17:28.796Z,1.93
2018-12-09T03:19:56.930Z,1.50
2018-12-09T03:22:25.172Z,0.60
2018-12-09T03:24:53.296Z,0.63
2018-12-09T03:27:21.433Z,1.80
2018-12-09T03:29:49.636Z,1.43
2018-12-09T03:32:18.055Z,1.43
2018-12-09T03:34:46.447Z,1.03
2018-12-09T03:37:14.585Z,1.90
2018-12-09T03:39:42.813Z,2.77
2018-12-09T03:42:11.109Z,2.97
2018-12-09T03:44:39.231Z,0.73
2018-12-09T03:47:07.592Z,1.93
2018-12-09T03:49:35.824Z,1.10
2018-12-09T03:52:04.013Z,1.37
2018-12-09T03:54:32.137Z,2.57
2018-12-09T03:57:00.348Z,1.63
2018-12-09T03:59:28.475Z,1.87
2018-12-09T04:01:56.634Z,3.20
2018-12-09T04:04:24.840Z,2.33
2018-12-09T04:06:53.021Z,3.00
2018-12-09T04:09:21.232Z,2.33
2018-12-09T04:11:49.425Z,3.30
2018-12-09T04:14:17.635Z,3.17
2018-12-09T04:16:46.042Z,3.47
2018-12-09T04:19:14.621Z,3.40
2018-12-09T04:21:42.900Z,2.17
2018-12-09T04:24:11.040Z,1.97
2018-12-09T04:26:39.244Z,4.40
2018-12-09T04:29:10.541Z,2.03
2018-12-09T04:31:38.761Z,3.93
2018-12-09T04:34:06.881Z,2.03
2018-12-09T04:36:35.099Z,2.83
2018-12-09T04:39:04.473Z,1.47
2018-12-09T04:41:32.630Z,1.17
2018-12-09T04:44:00.872Z,3.10
2018-12-09T04:46:28.991Z,1.87
2018-12-09T04:48:57.235Z,2.57
2018-12-09T04:51:31.943Z,2.27
2018-12-09T04:54:00.106Z,1.97
2018-12-09T04:56:28.328Z,1.43
2018-12-09T04:59:22.868Z,1.90
2018-12-09T05:01:51.152Z,1.53
2018-12-09T05:04:19.441Z,1.57
2018-12-09T05:06:47.665Z,1.97
2018-12-09T05:09:15.967Z,2.50
2018-12-09T05:11:44.148Z,2.13
2018-12-09T05:14:12.296Z,1.33
2018-12-09T05:16:40.408Z,2.47
2018-12-09T05:19:08.633Z,5.73
2018-12-09T05:21:36.799Z,2.97
2018-12-09T05:24:05.019Z,2.33
2018-12-09T05:26:33.231Z,2.47
2018-12-09T05:29:01.344Z,2.17
2018-12-09T05:31:29.549Z,4.43
2018-12-09T05:33:57.770Z,4.30
2018-12-09T05:36:26.317Z,6.07
2018-12-09T05:38:54.516Z,7.90
2018-12-09T05:41:22.664Z,4.87
2018-12-09T05:43:50.783Z,3.57
2018-12-09T05:46:18.896Z,2.57
2018-12-09T05:48:47.525Z,5.43
2018-12-09T05:51:15.732Z,3.17
2018-12-09T05:53:43.865Z,5.93
2018-12-09T05:56:12.071Z,4.60
2018-12-09T05:58:40.244Z,5.70
2018-12-09T06:01:08.762Z,7.33
2018-12-09T06:03:36.992Z,3.80
2018-12-09T06:06:05.273Z,3.97
2018-12-09T06:08:33.467Z,4.53
2018-12-09T06:11:01.608Z,3.93
2018-12-09T06:13:29.976Z,3.73
2018-12-09T06:15:58.256Z,4.77
2018-12-09T06:18:26.392Z,6.10
2018-12-09T06:20:54.507Z,4.73
2018-12-09T06:23:22.725Z,4.53
2018-12-09T06:25:50.971Z,4.83
2018-12-09T06:28:19.120Z,5.60
2018-12-09T06:30:47.416Z,8.73
2018-12-09T06:33:15.544Z,5.43
2018-12-09T06:35:43.779Z,6.37
2018-12-09T06:38:11.989Z,6.23
2018-12-09T06:40:40.211Z,5.83
2018-12-09T06:43:08.351Z,7.70
2018-12-09T06:45:36.509Z,6.23
2018-12-09T06:48:04.740Z,5.20
2018-12-09T06:50:32.955Z,7.63
2018-12-09T06:53:01.088Z,10.40
2018-12-09T06:55:29.450Z,5.80
2018-12-09T06:57:57.600Z,8.57
2018-12-09T07:00:25.888Z,6.63
2018-12-09T07:02:54.413Z,5.87
2018-12-09T07:05:22.581Z,5.57
2018-12-09T07:07:50.708Z,6.00
2018-12-09T07:10:19.024Z,5.77
2018-12-09T07:12:47.251Z,6.07
2018-12-09T07:15:15.781Z,4.50
2018-12-09T07:17:44.007Z,5.60
2018-12-09T07:20:12.240Z,5.80
2018-12-09T07:22:40.382Z,5.77
2018-12-09T07:25:08.612Z,6.57
2018-12-09T07:27:37.035Z,6.50
2018-12-09T07:30:06.491Z,3.37
2018-12-09T07:32:34.734Z,5.53
2018-12-09T07:35:02.979Z,3.70
2018-12-09T07:37:31.344Z,7.10
2018-12-09T07:39:59.667Z,6.23
2018-12-09T07:42:27.804Z,5.13
2018-12-09T07:44:56.030Z,7.53
2018-12-09T07:47:24.249Z,8.57
2018-12-09T07:49:52.473Z,6.53
2018-12-09T07:52:21.105Z,6.00
2018-12-09T07:55:12.199Z,5.03
2018-12-09T07:57:40.473Z,7.80
2018-12-09T08:00:08.983Z,6.33
2018-12-09T08:02:37.095Z,7.30
2018-12-09T08:05:05.652Z,7.67
2018-12-09T08:07:33.983Z,6.47
2018-12-09T08:10:02.235Z,10.03
2018-12-09T08:12:30.405Z,7.73
2018-12-09T08:14:58.542Z,7.17
2018-12-09T08:17:26.728Z,8.17
2018-12-09T08:19:55.037Z,8.33
2018-12-09T08:22:23.658Z,9.47
2018-12-09T08:24:51.864Z,7.30
2018-12-09T08:27:26.476Z,6.20
2018-12-09T08:29:56.661Z,9.30
2018-12-09T08:32:27.097Z,11.43
2018-12-09T08:34:55.497Z,11.73
2018-12-09T08:37:23.700Z,12.43
2018-12-09T08:39:52.536Z,8.40
2018-12-09T08:42:20.689Z,12.80
2018-12-09T08:44:48.824Z,10.13
2018-12-09T08:47:17.029Z,7.37
2018-12-09T08:49:45.182Z,11.53
2018-12-09T08:52:14.796Z,12.93
2018-12-09T08:54:43.012Z,10.00
2018-12-09T08:57:11.315Z,9.17
2018-12-09T08:59:39.527Z,12.60
2018-12-09T09:02:07.844Z,6.97
2018-12-09T09:04:53.648Z,10.60
2018-12-09T09:07:21.758Z,9.30
2018-12-09T09:09:49.903Z,7.93
2018-12-09T09:12:18.320Z,9.50
2018-12-09T09:14:46.543Z,16.27
2018-12-09T09:17:14.663Z,9.70
2018-12-09T09:19:42.859Z,7.60
2018-12-09T09:22:11.123Z,12.10
2018-12-09T09:24:39.237Z,8.30
2018-12-09T09:27:07.359Z,8.50
2018-12-09T09:29:35.732Z,8.63
2018-12-09T09:32:04.104Z,11.43
2018-12-09T09:34:32.227Z,10.40
2018-12-09T09:37:00.578Z,7.47
2018-12-09T09:39:28.852Z,8.07
2018-12-09T09:41:57.145Z,10.90
2018-12-09T09:44:25.262Z,10.87
2018-12-09T09:46:53.396Z,8.57
2018-12-09T09:49:21.567Z,11.27
2018-12-09T09:51:49.756Z,8.83
2018-12-09T09:54:18.003Z,10.00
2018-12-09T09:56:46.201Z,9.03
2018-12-09T09:59:14.324Z,9.10
2018-12-09T10:01:42.505Z,9.40
2018-12-09T10:04:10.766Z,7.67
2018-12-09T10:06:38.972Z,8.00
2018-12-09T10:09:07.281Z,10.53
2018-12-09T10:11:35.428Z,8.80
2018-12-09T10:14:03.701Z,11.27
2018-12-09T10:16:31.874Z,9.87
2018-12-09T10:19:00.104Z,12.83
2018-12-09T10:21:28.303Z,8.30
2018-12-09T10:23:56.460Z,11.37
2018-12-09T10:26:24.725Z,14.00
2018-12-09T10:28:54.036Z,9.30
2018-12-09T10:31:22.256Z,11.83
2018-12-09T10:33:50.545Z,7.67
2018-12-09T10:36:18.688Z,11.90
2018-12-09T10:38:46.876Z,12.40
2018-12-09T10:41:15.009Z,5.87
2018-12-09T10:43:43.226Z,9.43
2018-12-09T10:46:11.608Z,10.13
2018-12-09T10:48:39.876Z,8.80
2018-12-09T10:51:08.033Z,8.83
2018-12-09T10:53:36.243Z,10.83
2018-12-09T10:56:04.495Z,15.87
2018-12-09T10:58:32.602Z,9.83
2018-12-09T11:01:09.159Z,9.60
2018-12-09T11:03:37.503Z,13.60
2018-12-09T11:06:05.757Z,9.47
2018-12-09T11:08:33.890Z,10.07
2018-12-09T11:11:02.060Z,11.60
2018-12-09T11:13:30.288Z,11.33
2018-12-09T11:15:58.561Z,12.43
2018-12-09T11:18:26.895Z,7.33
2018-12-09T11:20:55.109Z,7.93
2018-12-09T11:23:23.349Z,6.30
2018-12-09T11:25:51.589Z,10.93
2018-12-09T11:28:19.939Z,9.60
2018-12-09T11:30:48.332Z,9.00
2018-12-09T11:33:16.517Z,17.17
2018-12-09T11:35:44.936Z,10.63
2018-12-09T11:38:13.354Z,12.50
2018-12-09T11:40:41.791Z,10.27
2018-12-09T11:43:09.973Z,8.30
2018-12-09T11:45:38.311Z,5.83
2018-12-09T11:48:06.894Z,8.70
2018-12-09T11:50:35.282Z,7.97
2018-12-09T11:53:03.620Z,7.57
2018-12-09T11:55:31.967Z,8.50
2018-12-09T11:58:00.352Z,9.43
2018-12-09T12:00:28.559Z,11.00
2018-12-09T12:02:56.815Z,5.77
2018-12-09T12:05:25.249Z,8.20
2018-12-09T12:07:53.451Z,8.37
2018-12-09T12:10:21.916Z,8.33
2018-12-09T12:12:50.191Z,6.10
2018-12-09T12:15:25.151Z,6.10
2018-12-09T12:17:53.327Z,5.50
2018-12-09T12:20:21.503Z,8.37
2018-12-09T12:22:49.689Z,5.27
2018-12-09T12:25:17.887Z,10.13
2018-12-09T12:27:46.130Z,9.90
2018-12-09T12:30:14.343Z,8.00
2018-12-09T12:32:42.540Z,8.33
2018-12-09T12:35:10.678Z,5.23
2018-12-09T12:37:38.909Z,5.87
2018-12-09T12:40:07.254Z,7.03
2018-12-09T12:42:36.317Z,4.20
2018-12-09T12:45:05.128Z,7.90
2018-12-09T12:47:33.321Z,4.70
2018-12-09T12:50:01.756Z,3.67
2018-12-09T12:52:30.564Z,5.83
2018-12-09T12:54:58.705Z,5.30
2018-12-09T12:57:26.876Z,4.80
2018-12-09T12:59:55.076Z,2.53
2018-12-09T13:02:23.671Z,5.63
2018-12-09T13:04:52.827Z,4.47
2018-12-09T13:07:21.015Z,4.63
2018-12-09T13:09:49.152Z,3.80
2018-12-09T13:12:17.303Z,4.67
2018-12-09T13:14:45.448Z,2.00
2018-12-09T13:17:14.369Z,5.23
2018-12-09T13:19:42.665Z,2.40
2018-12-09T13:24:36.448Z,3.37
2018-12-09T13:27:04.756Z,3.70
2018-12-09T13:29:33.058Z,4.80
2018-12-09T13:32:01.386Z,3.00
2018-12-09T13:34:30.981Z,2.17
2018-12-09T13:36:59.312Z,3.13
2018-12-09T13:39:27.477Z,6.70
2018-12-09T13:41:55.600Z,3.97
2018-12-09T13:44:23.856Z,2.77
2018-12-09T13:46:52.147Z,3.30
2018-12-09T13:49:20.275Z,3.57
2018-12-09T13:51:48.430Z,2.47
2018-12-09T13:54:16.588Z,4.33
2018-12-09T13:56:45.228Z,2.63
2018-12-09T13:59:13.364Z,3.00
2018-12-09T14:01:41.696Z,2.53
2018-12-09T14:04:10.352Z,2.93
2018-12-09T14:06:38.487Z,2.30
2018-12-09T14:09:07.708Z,4.53
2018-12-09T14:11:36.045Z,2.73
2018-12-09T14:14:04.267Z,4.57
2018-12-09T14:16:32.520Z,2.80
2018-12-09T14:19:00.752Z,2.53
2018-12-09T14:21:29.027Z,2.40
2018-12-09T14:23:57.165Z,4.40
2018-12-09T14:26:25.448Z,3.20
2018-12-09T14:28:55.716Z,2.43
2018-12-09T14:31:23.989Z,3.27
2018-12-09T14:33:52.146Z,3.43
2018-12-09T14:36:20.282Z,3.97
2018-12-09T14:38:48.666Z,2.70
2018-12-09T14:41:16.892Z,2.63
2018-12-09T14:43:45.112Z,2.20
2018-12-09T14:46:13.251Z,3.03
2018-12-09T14:48:41.529Z,2.63
2018-12-09T14:51:09.829Z,2.47
2018-12-09T14:53:38.046Z,2.33
2018-12-09T14:56:06.352Z,2.80
2018-12-09T14:58:34.829Z,3.83
2018-12-09T15:01:03.056Z,4.43
2018-12-09T15:03:31.368Z,1.37
2018-12-09T15:05:59.874Z,1.57
2018-12-09T15:08:28.009Z,1.07
2018-12-09T15:10:56.341Z,1.87
2018-12-09T15:13:24.579Z,1.87
2018-12-09T15:15:52.852Z,1.70
2018-12-09T15:18:21.058Z,3.57
2018-12-09T15:20:49.320Z,3.33
2018-12-09T15:23:17.815Z,2.03
2018-12-09T15:25:45.983Z,1.87
2018-12-09T15:28:14.170Z,1.93
2018-12-09T15:30:42.501Z,1.87
2018-12-09T15:33:10.727Z,3.43
2018-12-09T15:35:38.923Z,1.97
2018-12-09T15:38:07.211Z,2.10
2018-12-09T15:40:35.398Z,1.83
2018-12-09T15:43:03.591Z,2.83
2018-12-09T15:45:31.863Z,2.13
2018-12-09T15:48:00.054Z,2.30
2018-12-09T15:50:28.188Z,3.43
2018-12-09T15:52:56.411Z,2.27
2018-12-09T15:55:24.543Z,2.57
2018-12-09T15:57:52.648Z,2.70
2018-12-09T16:00:21.025Z,3.63
2018-12-09T16:02:49.267Z,2.77
2018-12-09T16:05:17.792Z,2.60
2018-12-09T16:07:45.920Z,3.00
2018-12-09T16:10:19.127Z,4.77
2018-12-09T16:12:47.362Z,2.07
2018-12-09T16:15:15.594Z,2.90
2018-12-09T16:17:44.891Z,2.63
2018-12-09T16:20:13.380Z,1.43
2018-12-09T16:22:41.658Z,1.50
2018-12-09T16:25:09.889Z,2.83
2018-12-09T16:27:38.048Z,2.37
2018-12-09T16:30:07.897Z,1.47
2018-12-09T16:32:36.054Z,2.37
2018-12-09T16:35:04.975Z,2.57
2018-12-09T16:37:33.202Z,2.80
2018-12-09T16:40:01.638Z,2.33
2018-12-09T16:42:29.829Z,2.33
2018-12-09T16:44:58.256Z,3.10
2018-12-09T16:47:26.511Z,3.87
2018-12-09T16:49:54.864Z,1.60
2018-12-09T16:52:23.090Z,2.30
2018-12-09T16:54:51.314Z,1.97
2018-12-09T16:57:19.543Z,2.23
2018-12-09T16:59:47.822Z,1.07
2018-12-09T17:02:16.075Z,2.27
2018-12-09T17:04:44.204Z,2.13
2018-12-09T17:07:12.686Z,2.47
2018-12-09T17:09:40.907Z,1.87
2018-12-09T17:12:09.504Z,1.30
2018-12-09T17:14:37.726Z,3.20
2018-12-09T17:17:05.577Z,1.40
2018-12-09T17:19:34.289Z,1.37
2018-12-09T17:22:02.580Z,1.40
2018-12-09T17:24:30.726Z,1.53
2018-12-09T17:26:58.944Z,1.90
2018-12-09T17:29:27.583Z,1.10
2018-12-09T17:31:55.727Z,2.70
2018-12-09T17:34:23.947Z,1.77
2018-12-09T17:36:52.211Z,1.20
2018-12-09T17:39:20.368Z,1.90
2018-12-09T17:41:48.562Z,1.73
2018-12-09T17:44:16.835Z,2.23
2018-12-09T17:46:45.067Z,1.97
2018-12-09T17:49:13.313Z,2.80
2018-12-09T17:51:41.629Z,1.73
2018-12-09T17:54:09.811Z,1.60
2018-12-09T17:56:37.972Z,2.23
2018-12-09T17:59:06.100Z,2.70
2018-12-09T18:01:34.345Z,2.07
2018-12-09T18:04:02.612Z,1.77
2018-12-09T18:06:30.772Z,3.20
2018-12-09T18:08:59.491Z,1.43
2018-12-09T18:11:27.720Z,1.70
2018-12-09T18:14:03.904Z,2.43
2018-12-09T18:16:32.175Z,1.60
2018-12-09T18:19:00.325Z,1.87
2018-12-09T18:21:28.474Z,2.00
2018-12-09T18:23:56.613Z,2.50
2018-12-09T18:26:25.013Z,3.17
2018-12-09T18:28:53.276Z,2.80
2018-12-09T18:31:21.557Z,3.90
2018-12-09T18:33:49.903Z,2.27
2018-12-09T18:36:18.111Z,3.97
2018-12-09T18:38:46.688Z,4.50
2018-12-09T18:41:14.976Z,2.43
2018-12-09T18:43:49.701Z,2.47
2018-12-09T18:46:17.898Z,2.97
2018-12-09T18:48:46.048Z,1.83
2018-12-09T18:51:14.333Z,3.07
2018-12-09T18:53:42.632Z,4.63
2018-12-09T18:56:10.751Z,2.87
2018-12-09T18:58:38.879Z,2.03
2018-12-09T19:01:07.121Z,2.70
2018-12-09T19:03:35.263Z,3.40
2018-12-09T19:06:03.472Z,3.03
2018-12-09T19:08:31.767Z,2.50
2018-12-09T19:11:00.218Z,2.60
2018-12-09T19:13:28.367Z,3.73
2018-12-09T19:15:56.570Z,2.17
2018-12-09T19:18:24.940Z,2.53
2018-12-09T19:20:53.143Z,3.40
2018-12-09T19:23:21.491Z,2.70
2018-12-09T19:25:49.730Z,3.37
2018-12-09T19:28:48.816Z,2.70
2018-12-09T19:31:16.989Z,3.17
2018-12-09T19:33:45.173Z,2.77
2018-12-09T19:36:13.508Z,2.33
2018-12-09T19:38:41.682Z,1.90
2018-12-09T19:41:09.849Z,2.33
2018-12-09T19:43:38.036Z,4.33
2018-12-09T19:46:06.275Z,5.13
2018-12-09T19:48:34.485Z,2.83
2018-12-09T19:51:02.690Z,3.57
2018-12-09T19:53:30.864Z,2.60
2018-12-09T19:55:59.062Z,2.70
2018-12-09T19:58:27.219Z,2.53
2018-12-09T20:00:55.599Z,2.40
2018-12-09T20:03:24.128Z,2.83
2018-12-09T20:05:52.352Z,2.90
2018-12-09T20:08:20.623Z,2.43
2018-12-09T20:10:48.771Z,2.23
2018-12-09T20:13:16.923Z,5.20
2018-12-09T20:15:45.163Z,5.00
2018-12-09T20:18:13.449Z,4.00
2018-12-09T20:20:48.185Z,3.53
2018-12-09T20:23:16.308Z,3.33
2018-12-09T20:25:44.832Z,4.57
2018-12-09T20:28:13.212Z,3.30
2018-12-09T20:30:41.445Z,4.80
2018-12-09T20:33:09.674Z,3.80
2018-12-09T20:35:37.919Z,3.77
2018-12-09T20:38:06.205Z,3.63
2018-12-09T20:40:34.720Z,5.17
2018-12-09T20:43:02.899Z,4.23
2018-12-09T20:45:31.222Z,3.20
2018-12-09T20:47:59.501Z,3.40
2018-12-09T20:50:27.673Z,3.47
2018-12-09T20:52:55.876Z,2.87
2018-12-09T20:55:24.107Z,3.13
2018-12-09T20:57:52.242Z,3.40
2018-12-09T21:00:20.503Z,3.43
2018-12-09T21:02:48.663Z,3.03
2018-12-09T21:05:16.944Z,3.43
2018-12-09T21:07:45.118Z,3.10
2018-12-09T21:10:13.506Z,4.43
2018-12-09T21:12:41.648Z,3.90
2018-12-09T21:15:09.805Z,2.90
2018-12-09T21:17:37.973Z,2.60
2018-12-09T21:20:06.332Z,4.57
2018-12-09T21:22:34.541Z,6.17
2018-12-09T21:25:02.790Z,5.67
2018-12-09T21:27:32.926Z,6.23
2018-12-09T21:30:01.189Z,4.63
2018-12-09T21:32:29.323Z,4.20
2018-12-09T21:34:57.469Z,5.50
2018-12-09T21:37:25.700Z,3.93
2018-12-09T21:39:53.853Z,2.87
2018-12-09T21:42:22.000Z,4.80
2018-12-09T21:44:50.166Z,3.40
2018-12-09T21:47:18.328Z,4.53
2018-12-09T21:49:46.525Z,4.20
2018-12-09T21:52:14.741Z,4.87
2018-12-09T21:54:42.935Z,6.00
2018-12-09T21:57:11.084Z,3.57
2018-12-09T21:59:39.219Z,3.73
2018-12-09T22:02:07.452Z,3.60
2018-12-09T22:04:35.563Z,4.43
2018-12-09T22:07:03.804Z,2.83
2018-12-09T22:09:31.995Z,1.90
2018-12-09T22:12:00.508Z,2.33
2018-12-09T22:14:29.128Z,3.07
2018-12-09T22:16:57.473Z,2.30
2018-12-09T22:19:25.611Z,1.87
2018-12-09T22:21:53.830Z,3.30
2018-12-09T22:24:22.019Z,2.00
2018-12-09T22:26:50.441Z,3.80
2018-12-09T22:29:18.564Z,2.50
2018-12-09T22:31:46.812Z,2.57
2018-12-09T22:34:15.052Z,1.83
2018-12-09T22:36:43.312Z,1.70
2018-12-09T22:39:11.456Z,3.77
2018-12-09T22:41:39.616Z,3.20
2018-12-09T22:44:07.848Z,2.07
2018-12-09T22:46:36.008Z,3.20
2018-12-09T22:49:04.248Z,3.73
2018-12-09T22:51:32.814Z,2.87
2018-12-09T22:54:01.015Z,3.03
2018-12-09T22:56:29.361Z,2.73
2018-12-09T22:58:57.559Z,2.60
2018-12-09T23:01:25.915Z,2.70
2018-12-09T23:03:54.498Z,3.37
2018-12-09T23:06:23.078Z,3.77
2018-12-09T23:08:51.217Z,1.60
2018-12-09T23:11:19.700Z,2.27
2018-12-09T23:13:47.902Z,2.47
2018-12-09T23:16:16.475Z,4.33
2018-12-09T23:18:44.636Z,2.67
2018-12-09T23:21:12.840Z,2.63
2018-12-09T23:23:40.999Z,2.10
2018-12-09T23:26:09.375Z,2.97
2018-12-09T23:28:37.545Z,2.97
2018-12-09T23:31:05.663Z,3.37
2018-12-09T23:33:34.183Z,3.00
2018-12-09T23:36:02.318Z,2.17
2018-12-09T23:38:30.797Z,3.03
2018-12-09T23:40:58.977Z,2.37
2018-12-09T23:43:27.170Z,4.97
2018-12-09T23:45:55.816Z,4.40
2018-12-09T23:48:24.098Z,2.20
2018-12-09T23:50:52.241Z,4.53
2018-12-09T23:53:20.518Z,1.90
2018-12-09T23:55:48.892Z,1.83
2018-12-09T23:58:17.033Z,1.57
